sensor_id;sensor_type;location;lat;lon;timestamp;pressure;altitude;pressure_sealevel;temperature;humidity
76519;BME280;67029;51.054;13.798;2023-10-09T00:02:29;100957.91;;;14.95;58.43
76519;BME280;67029;51.054;13.798;2023-10-09T00:04:59;100950.77;;;14.99;58.37
76519;BME280;67029;51.054;13.798;2023-10-09T00:07:29;100943.02;;;14.88;58.41
76519;BME280;67029;51.054;13.798;2023-10-09T00:09:59;100942.23;;;14.72;58.79
76519;BME280;67029;51.054;13.798;2023-10-09T00:12:29;100943.08;;;14.70;58.65
76519;BME280;67029;51.054;13.798;2023-10-09T00:15:03;100942.80;;;14.82;58.43
76519;BME280;67029;51.054;13.798;2023-10-09T00:17:30;100936.67;;;14.98;58.13
76519;BME280;67029;51.054;13.798;2023-10-09T00:20:00;100934.12;;;14.91;57.84
76519;BME280;67029;51.054;13.798;2023-10-09T00:22:30;100928.92;;;14.90;57.79
76519;BME280;67029;51.054;13.798;2023-10-09T00:25:00;100930.78;;;14.88;57.65
76519;BME280;67029;51.054;13.798;2023-10-09T00:27:30;100920.59;;;14.87;57.53
76519;BME280;67029;51.054;13.798;2023-10-09T00:30:00;100912.86;;;14.81;57.50
76519;BME280;67029;51.054;13.798;2023-10-09T00:32:30;100900.50;;;14.75;57.54
76519;BME280;67029;51.054;13.798;2023-10-09T00:35:00;100892.47;;;14.88;57.41
76519;BME280;67029;51.054;13.798;2023-10-09T00:37:30;100882.98;;;14.90;57.23
76519;BME280;67029;51.054;13.798;2023-10-09T00:40:00;100881.69;;;14.99;56.99
76519;BME280;67029;51.054;13.798;2023-10-09T00:42:30;100869.64;;;14.90;57.24
76519;BME280;67029;51.054;13.798;2023-10-09T00:45:00;100844.95;;;14.79;57.52
76519;BME280;67029;51.054;13.798;2023-10-09T00:47:31;100820.25;;;14.70;57.80
76519;BME280;67029;51.054;13.798;2023-10-09T00:50:02;100817.88;;;14.57;58.49
76519;BME280;67029;51.054;13.798;2023-10-09T00:52:32;100801.41;;;14.60;58.14
76519;BME280;67029;51.054;13.798;2023-10-09T00:55:02;100795.12;;;14.55;58.28
76519;BME280;67029;51.054;13.798;2023-10-09T00:57:34;100797.50;;;14.51;58.51
76519;BME280;67029;51.054;13.798;2023-10-09T01:00:02;100825.00;;;14.63;58.09
76519;BME280;67029;51.054;13.798;2023-10-09T01:02:32;100829.52;;;14.74;57.80
76519;BME280;67029;51.054;13.798;2023-10-09T01:05:03;100838.21;;;14.68;57.94
76519;BME280;67029;51.054;13.798;2023-10-09T01:07:32;100835.23;;;14.76;57.73
76519;BME280;67029;51.054;13.798;2023-10-09T01:10:02;100839.81;;;14.92;57.37
76519;BME280;67029;51.054;13.798;2023-10-09T01:12:32;100831.67;;;15.09;56.99
76519;BME280;67029;51.054;13.798;2023-10-09T01:15:02;100820.48;;;15.23;56.96
76519;BME280;67029;51.054;13.798;2023-10-09T01:17:32;100818.95;;;15.33;56.53
76519;BME280;67029;51.054;13.798;2023-10-09T01:20:03;100815.73;;;15.43;56.29
76519;BME280;67029;51.054;13.798;2023-10-09T01:22:33;100825.55;;;15.49;56.07
76519;BME280;67029;51.054;13.798;2023-10-09T01:25:04;100816.08;;;15.53;56.05
76519;BME280;67029;51.054;13.798;2023-10-09T01:27:34;100810.27;;;15.56;55.98
76519;BME280;67029;51.054;13.798;2023-10-09T01:30:04;100797.03;;;15.68;55.93
76519;BME280;67029;51.054;13.798;2023-10-09T01:32:34;100787.61;;;15.70;55.84
76519;BME280;67029;51.054;13.798;2023-10-09T01:35:05;100779.55;;;15.73;55.85
76519;BME280;67029;51.054;13.798;2023-10-09T01:37:35;100768.52;;;15.80;55.77
76519;BME280;67029;51.054;13.798;2023-10-09T01:40:05;100769.39;;;15.82;55.64
76519;BME280;67029;51.054;13.798;2023-10-09T01:42:36;100762.94;;;15.88;55.81
76519;BME280;67029;51.054;13.798;2023-10-09T01:45:06;100768.27;;;15.89;55.54
76519;BME280;67029;51.054;13.798;2023-10-09T01:47:36;100766.05;;;15.89;55.54
76519;BME280;67029;51.054;13.798;2023-10-09T01:50:07;100762.95;;;15.90;55.59
76519;BME280;67029;51.054;13.798;2023-10-09T01:52:37;100771.05;;;15.93;55.51
76519;BME280;67029;51.054;13.798;2023-10-09T01:55:08;100771.44;;;15.97;55.54
76519;BME280;67029;51.054;13.798;2023-10-09T01:57:37;100764.55;;;16.02;55.63
76519;BME280;67029;51.054;13.798;2023-10-09T02:00:08;100753.91;;;16.05;55.46
76519;BME280;67029;51.054;13.798;2023-10-09T02:02:38;100741.70;;;16.08;55.47
76519;BME280;67029;51.054;13.798;2023-10-09T02:05:08;100727.45;;;16.03;55.61
76519;BME280;67029;51.054;13.798;2023-10-09T02:07:38;100719.48;;;16.02;55.45
76519;BME280;67029;51.054;13.798;2023-10-09T02:10:13;100701.53;;;15.92;55.83
76519;BME280;67029;51.054;13.798;2023-10-09T02:12:40;100700.12;;;15.87;56.06
76519;BME280;67029;51.054;13.798;2023-10-09T02:15:10;100698.35;;;15.90;55.98
76519;BME280;67029;51.054;13.798;2023-10-09T02:17:40;100682.79;;;15.90;55.92
76519;BME280;67029;51.054;13.798;2023-10-09T02:20:10;100682.27;;;15.92;55.93
76519;BME280;67029;51.054;13.798;2023-10-09T02:22:40;100692.95;;;15.94;56.01
76519;BME280;67029;51.054;13.798;2023-10-09T02:25:10;100693.61;;;16.01;55.88
76519;BME280;67029;51.054;13.798;2023-10-09T02:27:40;100686.28;;;16.06;55.88
76519;BME280;67029;51.054;13.798;2023-10-09T02:30:11;100677.23;;;16.12;55.73
76519;BME280;67029;51.054;13.798;2023-10-09T02:32:41;100662.59;;;16.11;55.61
76519;BME280;67029;51.054;13.798;2023-10-09T02:35:11;100646.19;;;16.13;55.60
76519;BME280;67029;51.054;13.798;2023-10-09T02:37:41;100642.28;;;15.96;55.86
76519;BME280;67029;51.054;13.798;2023-10-09T02:40:11;100639.53;;;15.74;56.22
76519;BME280;67029;51.054;13.798;2023-10-09T02:42:41;100640.28;;;15.56;56.84
76519;BME280;67029;51.054;13.798;2023-10-09T02:45:11;100634.37;;;15.55;56.88
76519;BME280;67029;51.054;13.798;2023-10-09T02:47:41;100638.34;;;15.46;56.96
76519;BME280;67029;51.054;13.798;2023-10-09T02:50:11;100628.41;;;15.54;56.88
76519;BME280;67029;51.054;13.798;2023-10-09T02:52:41;100622.52;;;15.55;56.98
76519;BME280;67029;51.054;13.798;2023-10-09T02:55:11;100616.36;;;15.59;56.73
76519;BME280;67029;51.054;13.798;2023-10-09T02:57:41;100610.80;;;15.62;56.72
76519;BME280;67029;51.054;13.798;2023-10-09T03:00:12;100600.10;;;15.50;57.06
76519;BME280;67029;51.054;13.798;2023-10-09T03:02:41;100591.55;;;15.39;57.43
76519;BME280;67029;51.054;13.798;2023-10-09T03:05:12;100579.20;;;15.18;58.09
76519;BME280;67029;51.054;13.798;2023-10-09T03:07:42;100574.02;;;15.18;58.68
76519;BME280;67029;51.054;13.798;2023-10-09T03:10:12;100565.89;;;15.16;58.31
76519;BME280;67029;51.054;13.798;2023-10-09T03:12:42;100561.62;;;15.29;58.19
76519;BME280;67029;51.054;13.798;2023-10-09T03:15:12;100551.47;;;15.44;57.86
76519;BME280;67029;51.054;13.798;2023-10-09T03:17:42;100548.84;;;15.49;57.84
76519;BME280;67029;51.054;13.798;2023-10-09T03:20:12;100540.77;;;15.57;57.62
76519;BME280;67029;51.054;13.798;2023-10-09T03:22:42;100535.23;;;15.68;57.71
76519;BME280;67029;51.054;13.798;2023-10-09T03:25:12;100529.88;;;15.71;57.79
76519;BME280;67029;51.054;13.798;2023-10-09T03:27:43;100517.91;;;15.61;58.11
76519;BME280;67029;51.054;13.798;2023-10-09T03:30:14;100506.34;;;15.53;58.43
76519;BME280;67029;51.054;13.798;2023-10-09T03:32:44;100494.07;;;15.33;59.05
76519;BME280;67029;51.054;13.798;2023-10-09T03:35:14;100492.91;;;15.24;59.20
76519;BME280;67029;51.054;13.798;2023-10-09T03:37:44;100484.95;;;15.28;59.37
76519;BME280;67029;51.054;13.798;2023-10-09T03:40:14;100479.69;;;15.36;59.04
76519;BME280;67029;51.054;13.798;2023-10-09T03:42:44;100486.06;;;15.28;59.36
76519;BME280;67029;51.054;13.798;2023-10-09T03:45:14;100499.28;;;15.30;59.06
76519;BME280;67029;51.054;13.798;2023-10-09T03:47:44;100506.41;;;15.33;59.17
76519;BME280;67029;51.054;13.798;2023-10-09T03:50:14;100504.81;;;15.27;59.50
76519;BME280;67029;51.054;13.798;2023-10-09T03:52:44;100504.36;;;15.36;59.33
76519;BME280;67029;51.054;13.798;2023-10-09T03:55:14;100507.88;;;15.49;59.09
76519;BME280;67029;51.054;13.798;2023-10-09T03:57:44;100507.93;;;15.61;58.87
76519;BME280;67029;51.054;13.798;2023-10-09T04:00:15;100511.56;;;15.62;58.63
76519;BME280;67029;51.054;13.798;2023-10-09T04:02:45;100509.44;;;15.65;58.72
76519;BME280;67029;51.054;13.798;2023-10-09T04:05:15;100507.28;;;15.69;58.70
76519;BME280;67029;51.054;13.798;2023-10-09T04:07:45;100498.44;;;15.62;58.88
76519;BME280;67029;51.054;13.798;2023-10-09T04:10:15;100491.35;;;15.49;59.34
76519;BME280;67029;51.054;13.798;2023-10-09T04:12:45;100494.80;;;15.57;59.32
76519;BME280;67029;51.054;13.798;2023-10-09T04:15:15;100504.32;;;15.65;59.00
76519;BME280;67029;51.054;13.798;2023-10-09T04:17:45;100505.55;;;15.73;59.04
76519;BME280;67029;51.054;13.798;2023-10-09T04:20:15;100502.95;;;15.80;58.91
76519;BME280;67029;51.054;13.798;2023-10-09T04:22:46;100496.22;;;15.85;58.73
76519;BME280;67029;51.054;13.798;2023-10-09T04:25:17;100500.33;;;15.90;58.67
76519;BME280;67029;51.054;13.798;2023-10-09T04:27:46;100508.33;;;15.95;58.50
76519;BME280;67029;51.054;13.798;2023-10-09T04:30:17;100503.19;;;15.98;58.40
76519;BME280;67029;51.054;13.798;2023-10-09T04:32:46;100502.06;;;16.01;58.52
76519;BME280;67029;51.054;13.798;2023-10-09T04:35:16;100494.74;;;16.04;58.37
76519;BME280;67029;51.054;13.798;2023-10-09T04:37:46;100488.88;;;16.08;58.49
76519;BME280;67029;51.054;13.798;2023-10-09T04:40:16;100492.75;;;16.10;58.54
76519;BME280;67029;51.054;13.798;2023-10-09T04:42:46;100504.23;;;16.13;58.54
76519;BME280;67029;51.054;13.798;2023-10-09T04:45:16;100500.44;;;16.15;58.49
76519;BME280;67029;51.054;13.798;2023-10-09T04:47:47;100488.40;;;16.12;58.25
76519;BME280;67029;51.054;13.798;2023-10-09T04:50:17;100480.15;;;16.12;58.72
76519;BME280;67029;51.054;13.798;2023-10-09T04:52:47;100479.39;;;16.14;58.48
76519;BME280;67029;51.054;13.798;2023-10-09T04:55:17;100473.55;;;16.15;58.46
76519;BME280;67029;51.054;13.798;2023-10-09T04:57:47;100457.17;;;16.11;58.51
76519;BME280;67029;51.054;13.798;2023-10-09T05:00:18;100459.92;;;15.95;59.24
76519;BME280;67029;51.054;13.798;2023-10-09T05:02:47;100454.30;;;15.97;59.31
76519;BME280;67029;51.054;13.798;2023-10-09T05:05:17;100439.78;;;15.93;59.04
76519;BME280;67029;51.054;13.798;2023-10-09T05:07:47;100450.97;;;15.87;59.44
76519;BME280;67029;51.054;13.798;2023-10-09T05:10:17;100458.55;;;15.90;59.96
76519;BME280;67029;51.054;13.798;2023-10-09T05:12:47;100448.57;;;15.93;59.62
76519;BME280;67029;51.054;13.798;2023-10-09T05:15:17;100441.56;;;15.81;60.01
76519;BME280;67029;51.054;13.798;2023-10-09T05:17:47;100436.64;;;15.51;60.70
76519;BME280;67029;51.054;13.798;2023-10-09T05:20:17;100419.55;;;15.42;60.81
76519;BME280;67029;51.054;13.798;2023-10-09T05:22:47;100428.77;;;15.49;61.39
76519;BME280;67029;51.054;13.798;2023-10-09T05:25:17;100430.75;;;15.43;60.97
76519;BME280;67029;51.054;13.798;2023-10-09T05:27:47;100424.41;;;15.34;61.38
76519;BME280;67029;51.054;13.798;2023-10-09T05:30:17;100425.67;;;15.34;61.58
76519;BME280;67029;51.054;13.798;2023-10-09T05:32:48;100411.71;;;15.40;61.40
76519;BME280;67029;51.054;13.798;2023-10-09T05:35:18;100400.56;;;15.32;61.70
76519;BME280;67029;51.054;13.798;2023-10-09T05:37:48;100411.91;;;15.17;62.50
76519;BME280;67029;51.054;13.798;2023-10-09T05:40:18;100396.56;;;15.21;62.50
76519;BME280;67029;51.054;13.798;2023-10-09T05:42:49;100388.23;;;15.26;62.61
76519;BME280;67029;51.054;13.798;2023-10-09T05:45:19;100405.62;;;15.11;62.73
76519;BME280;67029;51.054;13.798;2023-10-09T05:47:50;100410.86;;;14.98;62.40
76519;BME280;67029;51.054;13.798;2023-10-09T05:50:26;100420.41;;;14.89;62.98
76519;BME280;67029;51.054;13.798;2023-10-09T05:52:57;100425.36;;;14.68;63.55
76519;BME280;67029;51.054;13.798;2023-10-09T05:55:23;100427.41;;;14.80;63.53
76519;BME280;67029;51.054;13.798;2023-10-09T05:57:52;100430.00;;;14.99;63.49
76519;BME280;67029;51.054;13.798;2023-10-09T06:00:19;100434.41;;;15.05;62.72
76519;BME280;67029;51.054;13.798;2023-10-09T06:02:49;100431.54;;;15.13;63.01
76519;BME280;67029;51.054;13.798;2023-10-09T06:05:20;100429.11;;;15.20;62.59
76519;BME280;67029;51.054;13.798;2023-10-09T06:07:50;100423.69;;;15.05;62.82
76519;BME280;67029;51.054;13.798;2023-10-09T06:10:20;100419.06;;;15.08;63.15
76519;BME280;67029;51.054;13.798;2023-10-09T06:12:50;100424.84;;;15.17;63.00
76519;BME280;67029;51.054;13.798;2023-10-09T06:15:20;100427.48;;;15.23;62.70
76519;BME280;67029;51.054;13.798;2023-10-09T06:17:50;100426.62;;;15.25;62.86
76519;BME280;67029;51.054;13.798;2023-10-09T06:20:20;100424.98;;;15.23;62.88
76519;BME280;67029;51.054;13.798;2023-10-09T06:22:50;100423.98;;;15.15;63.17
76519;BME280;67029;51.054;13.798;2023-10-09T06:25:20;100416.02;;;15.16;62.94
76519;BME280;67029;51.054;13.798;2023-10-09T06:27:50;100418.39;;;15.14;63.06
76519;BME280;67029;51.054;13.798;2023-10-09T06:30:20;100409.63;;;15.19;63.11
76519;BME280;67029;51.054;13.798;2023-10-09T06:32:50;100412.83;;;15.28;62.94
76519;BME280;67029;51.054;13.798;2023-10-09T06:35:20;100414.12;;;15.36;62.71
76519;BME280;67029;51.054;13.798;2023-10-09T06:37:51;100405.98;;;15.37;62.67
76519;BME280;67029;51.054;13.798;2023-10-09T06:40:21;100412.32;;;15.28;62.62
76519;BME280;67029;51.054;13.798;2023-10-09T06:42:51;100407.82;;;15.35;63.03
76519;BME280;67029;51.054;13.798;2023-10-09T06:45:21;100413.25;;;15.42;62.72
76519;BME280;67029;51.054;13.798;2023-10-09T06:47:51;100420.77;;;15.49;62.53
76519;BME280;67029;51.054;13.798;2023-10-09T06:50:24;100420.18;;;15.54;62.42
76519;BME280;67029;51.054;13.798;2023-10-09T06:52:52;100406.49;;;15.59;62.36
76519;BME280;67029;51.054;13.798;2023-10-09T06:55:21;100405.62;;;15.44;62.90
76519;BME280;67029;51.054;13.798;2023-10-09T06:57:51;100418.81;;;15.35;63.10
76519;BME280;67029;51.054;13.798;2023-10-09T07:00:21;100419.87;;;15.43;62.99
76519;BME280;67029;51.054;13.798;2023-10-09T07:02:51;100420.41;;;15.50;62.92
76519;BME280;67029;51.054;13.798;2023-10-09T07:05:21;100425.56;;;15.58;62.93
76519;BME280;67029;51.054;13.798;2023-10-09T07:07:51;100422.74;;;15.65;62.83
76519;BME280;67029;51.054;13.798;2023-10-09T07:10:21;100431.27;;;15.40;63.19
76519;BME280;67029;51.054;13.798;2023-10-09T07:12:51;100444.27;;;15.43;63.34
76519;BME280;67029;51.054;13.798;2023-10-09T07:15:21;100439.04;;;15.50;63.19
76519;BME280;67029;51.054;13.798;2023-10-09T07:17:51;100442.12;;;15.55;63.08
76519;BME280;67029;51.054;13.798;2023-10-09T07:20:21;100444.22;;;15.48;63.33
76519;BME280;67029;51.054;13.798;2023-10-09T07:22:51;100453.27;;;15.47;63.26
76519;BME280;67029;51.054;13.798;2023-10-09T07:25:22;100457.19;;;15.53;63.27
76519;BME280;67029;51.054;13.798;2023-10-09T07:27:52;100455.86;;;15.63;63.00
76519;BME280;67029;51.054;13.798;2023-10-09T07:30:22;100451.50;;;15.71;63.11
76519;BME280;67029;51.054;13.798;2023-10-09T07:33:05;100440.26;;;15.79;62.98
76519;BME280;67029;51.054;13.798;2023-10-09T07:35:23;100448.27;;;15.87;63.14
76519;BME280;67029;51.054;13.798;2023-10-09T07:37:53;100449.81;;;15.92;62.82
76519;BME280;67029;51.054;13.798;2023-10-09T07:40:23;100452.89;;;15.78;62.87
76519;BME280;67029;51.054;13.798;2023-10-09T07:42:53;100450.83;;;15.79;63.20
76519;BME280;67029;51.054;13.798;2023-10-09T07:45:23;100455.67;;;15.88;63.13
76519;BME280;67029;51.054;13.798;2023-10-09T07:47:53;100454.81;;;15.87;62.96
76519;BME280;67029;51.054;13.798;2023-10-09T07:50:23;100473.59;;;15.83;62.97
76519;BME280;67029;51.054;13.798;2023-10-09T07:52:53;100474.93;;;15.88;62.96
76519;BME280;67029;51.054;13.798;2023-10-09T07:55:23;100473.26;;;15.92;62.89
76519;BME280;67029;51.054;13.798;2023-10-09T07:57:53;100470.23;;;16.00;62.80
76519;BME280;67029;51.054;13.798;2023-10-09T08:00:23;100465.64;;;16.07;62.80
76519;BME280;67029;51.054;13.798;2023-10-09T08:02:53;100470.92;;;16.15;62.70
76519;BME280;67029;51.054;13.798;2023-10-09T08:05:23;100473.78;;;16.21;62.66
76519;BME280;67029;51.054;13.798;2023-10-09T08:07:53;100468.31;;;16.27;62.59
76519;BME280;67029;51.054;13.798;2023-10-09T08:10:23;100470.89;;;16.31;62.55
76519;BME280;67029;51.054;13.798;2023-10-09T08:12:53;100473.52;;;16.29;62.32
76519;BME280;67029;51.054;13.798;2023-10-09T08:15:25;100461.82;;;16.26;62.79
76519;BME280;67029;51.054;13.798;2023-10-09T08:17:55;100462.83;;;16.32;62.73
76519;BME280;67029;51.054;13.798;2023-10-09T08:20:25;100462.48;;;16.37;62.69
76519;BME280;67029;51.054;13.798;2023-10-09T08:22:55;100460.98;;;16.43;62.72
76519;BME280;67029;51.054;13.798;2023-10-09T08:25:26;100464.88;;;16.49;62.82
76519;BME280;67029;51.054;13.798;2023-10-09T08:27:57;100465.91;;;16.54;62.73
76519;BME280;67029;51.054;13.798;2023-10-09T08:30:26;100473.38;;;16.59;62.79
76519;BME280;67029;51.054;13.798;2023-10-09T08:32:56;100473.06;;;16.65;63.09
76519;BME280;67029;51.054;13.798;2023-10-09T08:35:29;100472.45;;;16.71;62.89
76519;BME280;67029;51.054;13.798;2023-10-09T08:37:57;100473.62;;;16.74;62.88
76519;BME280;67029;51.054;13.798;2023-10-09T08:40:29;100477.66;;;16.77;62.95
76519;BME280;67029;51.054;13.798;2023-10-09T08:43:03;100473.66;;;16.80;63.01
76519;BME280;67029;51.054;13.798;2023-10-09T08:45:28;100476.84;;;16.82;63.01
76519;BME280;67029;51.054;13.798;2023-10-09T08:47:58;100473.98;;;16.83;62.77
76519;BME280;67029;51.054;13.798;2023-10-09T08:50:28;100479.56;;;16.87;62.78
76519;BME280;67029;51.054;13.798;2023-10-09T08:52:58;100483.41;;;16.92;62.91
76519;BME280;67029;51.054;13.798;2023-10-09T08:55:28;100487.72;;;16.95;62.82
76519;BME280;67029;51.054;13.798;2023-10-09T08:57:58;100491.45;;;16.95;62.81
76519;BME280;67029;51.054;13.798;2023-10-09T09:00:28;100493.19;;;16.98;62.73
76519;BME280;67029;51.054;13.798;2023-10-09T09:02:58;100484.82;;;16.98;62.85
76519;BME280;67029;51.054;13.798;2023-10-09T09:05:29;100481.62;;;16.98;62.85
76519;BME280;67029;51.054;13.798;2023-10-09T09:07:58;100478.34;;;17.01;62.88
76519;BME280;67029;51.054;13.798;2023-10-09T09:10:29;100486.30;;;17.04;62.96
76519;BME280;67029;51.054;13.798;2023-10-09T09:12:59;100487.47;;;17.04;62.82
76519;BME280;67029;51.054;13.798;2023-10-09T09:15:30;100484.15;;;17.04;62.96
76519;BME280;67029;51.054;13.798;2023-10-09T09:18:04;100489.52;;;17.04;63.04
76519;BME280;67029;51.054;13.798;2023-10-09T09:20:30;100494.16;;;17.07;63.12
76519;BME280;67029;51.054;13.798;2023-10-09T09:23:01;100490.80;;;17.09;63.01
76519;BME280;67029;51.054;13.798;2023-10-09T09:25:44;100493.25;;;17.11;63.07
76519;BME280;67029;51.054;13.798;2023-10-09T09:28:01;100498.69;;;17.14;63.16
76519;BME280;67029;51.054;13.798;2023-10-09T09:30:31;100501.03;;;17.15;63.13
76519;BME280;67029;51.054;13.798;2023-10-09T09:33:24;100501.95;;;17.18;63.32
76519;BME280;67029;51.054;13.798;2023-10-09T09:35:32;100490.34;;;17.19;63.36
76519;BME280;67029;51.054;13.798;2023-10-09T09:38:02;100492.31;;;17.21;63.63
76519;BME280;67029;51.054;13.798;2023-10-09T09:40:32;100491.12;;;17.22;63.84
76519;BME280;67029;51.054;13.798;2023-10-09T09:43:03;100480.21;;;17.26;63.84
76519;BME280;67029;51.054;13.798;2023-10-09T09:45:34;100468.37;;;17.30;64.19
76519;BME280;67029;51.054;13.798;2023-10-09T09:48:04;100477.84;;;17.34;64.30
76519;BME280;67029;51.054;13.798;2023-10-09T09:50:33;100484.94;;;17.36;64.27
76519;BME280;67029;51.054;13.798;2023-10-09T09:53:03;100494.17;;;17.43;64.68
76519;BME280;67029;51.054;13.798;2023-10-09T09:55:34;100491.53;;;17.45;64.44
76519;BME280;67029;51.054;13.798;2023-10-09T09:58:04;100496.40;;;17.47;64.56
76519;BME280;67029;51.054;13.798;2023-10-09T10:00:36;100496.55;;;17.51;64.58
76519;BME280;67029;51.054;13.798;2023-10-09T10:03:26;100497.09;;;17.53;64.71
76519;BME280;67029;51.054;13.798;2023-10-09T10:05:37;100484.62;;;17.58;64.72
76519;BME280;67029;51.054;13.798;2023-10-09T10:08:06;100475.89;;;17.60;64.98
76519;BME280;67029;51.054;13.798;2023-10-09T10:10:37;100482.50;;;17.64;65.05
76519;BME280;67029;51.054;13.798;2023-10-09T10:13:06;100481.03;;;17.68;65.06
76519;BME280;67029;51.054;13.798;2023-10-09T10:16:07;100468.74;;;17.70;65.29
76519;BME280;67029;51.054;13.798;2023-10-09T10:18:07;100472.83;;;17.75;65.43
76519;BME280;67029;51.054;13.798;2023-10-09T10:23:15;100485.39;;;17.80;65.32
76519;BME280;67029;51.054;13.798;2023-10-09T10:25:38;100495.12;;;17.86;65.17
76519;BME280;67029;51.054;13.798;2023-10-09T10:28:24;100489.48;;;17.84;65.40
76519;BME280;67029;51.054;13.798;2023-10-09T10:30:46;100497.07;;;17.83;65.54
76519;BME280;67029;51.054;13.798;2023-10-09T10:33:09;100502.20;;;17.87;65.54
76519;BME280;67029;51.054;13.798;2023-10-09T10:35:39;100489.96;;;17.87;65.42
76519;BME280;67029;51.054;13.798;2023-10-09T10:38:24;100501.44;;;17.81;65.88
76519;BME280;67029;51.054;13.798;2023-10-09T10:40:40;100481.52;;;17.84;65.88
76519;BME280;67029;51.054;13.798;2023-10-09T10:43:19;100476.28;;;17.91;65.59
76519;BME280;67029;51.054;13.798;2023-10-09T10:45:41;100476.47;;;17.96;65.43
76519;BME280;67029;51.054;13.798;2023-10-09T10:48:11;100476.70;;;18.03;65.38
76519;BME280;67029;51.054;13.798;2023-10-09T10:50:41;100469.91;;;18.08;65.13
76519;BME280;67029;51.054;13.798;2023-10-09T10:53:12;100478.97;;;18.13;65.03
76519;BME280;67029;51.054;13.798;2023-10-09T10:55:58;100462.57;;;18.16;64.95
76519;BME280;67029;51.054;13.798;2023-10-09T10:58:15;100461.45;;;18.22;64.92
76519;BME280;67029;51.054;13.798;2023-10-09T11:00:42;100455.16;;;18.27;64.76
76519;BME280;67029;51.054;13.798;2023-10-09T11:03:19;100444.92;;;18.31;64.73
76519;BME280;67029;51.054;13.798;2023-10-09T11:05:43;100449.81;;;18.36;64.58
76519;BME280;67029;51.054;13.798;2023-10-09T11:08:13;100448.44;;;18.40;64.52
76519;BME280;67029;51.054;13.798;2023-10-09T11:10:43;100445.92;;;18.43;64.68
76519;BME280;67029;51.054;13.798;2023-10-09T11:13:27;100441.88;;;18.42;64.66
76519;BME280;67029;51.054;13.798;2023-10-09T11:15:44;100439.50;;;18.45;64.79
76519;BME280;67029;51.054;13.798;2023-10-09T11:18:15;100439.06;;;18.47;64.84
76519;BME280;67029;51.054;13.798;2023-10-09T11:20:45;100446.27;;;18.54;64.64
76519;BME280;67029;51.054;13.798;2023-10-09T11:23:15;100441.39;;;18.58;64.67
76519;BME280;67029;51.054;13.798;2023-10-09T11:25:46;100438.54;;;18.63;64.59
76519;BME280;67029;51.054;13.798;2023-10-09T11:28:22;100427.89;;;18.64;64.69
76519;BME280;67029;51.054;13.798;2023-10-09T11:30:45;100423.31;;;18.70;65.06
76519;BME280;67029;51.054;13.798;2023-10-09T11:33:15;100422.39;;;18.72;64.46
76519;BME280;67029;51.054;13.798;2023-10-09T11:35:59;100423.84;;;18.73;64.46
76519;BME280;67029;51.054;13.798;2023-10-09T11:38:16;100426.08;;;18.77;64.53
76519;BME280;67029;51.054;13.798;2023-10-09T11:40:46;100437.80;;;18.80;64.38
76519;BME280;67029;51.054;13.798;2023-10-09T11:43:16;100444.88;;;18.84;64.42
76519;BME280;67029;51.054;13.798;2023-10-09T11:45:46;100442.58;;;18.85;64.36
76519;BME280;67029;51.054;13.798;2023-10-09T11:48:17;100444.30;;;18.87;64.45
76519;BME280;67029;51.054;13.798;2023-10-09T11:50:48;100439.06;;;18.87;64.24
76519;BME280;67029;51.054;13.798;2023-10-09T11:53:17;100440.70;;;18.87;64.15
76519;BME280;67029;51.054;13.798;2023-10-09T11:55:48;100433.78;;;18.85;64.27
76519;BME280;67029;51.054;13.798;2023-10-09T11:58:21;100435.98;;;18.87;64.47
76519;BME280;67029;51.054;13.798;2023-10-09T12:00:58;100428.11;;;18.89;64.29
76519;BME280;67029;51.054;13.798;2023-10-09T12:03:19;100421.98;;;18.88;64.33
76519;BME280;67029;51.054;13.798;2023-10-09T12:05:49;100422.59;;;18.88;64.94
76519;BME280;67029;51.054;13.798;2023-10-09T12:08:19;100418.04;;;18.89;64.52
76519;BME280;67029;51.054;13.798;2023-10-09T12:10:49;100423.66;;;18.89;64.61
76519;BME280;67029;51.054;13.798;2023-10-09T12:13:19;100420.42;;;18.93;64.73
76519;BME280;67029;51.054;13.798;2023-10-09T12:15:50;100422.23;;;18.93;64.74
76519;BME280;67029;51.054;13.798;2023-10-09T12:18:21;100415.42;;;18.95;64.72
76519;BME280;67029;51.054;13.798;2023-10-09T12:20:51;100417.27;;;19.00;64.86
76519;BME280;67029;51.054;13.798;2023-10-09T12:23:22;100416.83;;;18.95;64.45
76519;BME280;67029;51.054;13.798;2023-10-09T12:25:51;100416.14;;;18.93;64.91
76519;BME280;67029;51.054;13.798;2023-10-09T12:28:22;100419.60;;;18.94;64.81
76519;BME280;67029;51.054;13.798;2023-10-09T12:30:52;100421.35;;;18.95;64.70
76519;BME280;67029;51.054;13.798;2023-10-09T12:33:22;100418.27;;;18.94;64.78
76519;BME280;67029;51.054;13.798;2023-10-09T12:35:52;100419.02;;;18.93;64.96
76519;BME280;67029;51.054;13.798;2023-10-09T12:38:22;100425.02;;;18.96;64.81
76519;BME280;67029;51.054;13.798;2023-10-09T12:40:52;100421.28;;;18.95;64.91
76519;BME280;67029;51.054;13.798;2023-10-09T12:43:22;100422.64;;;18.93;64.68
76519;BME280;67029;51.054;13.798;2023-10-09T12:45:52;100417.80;;;18.90;64.79
76519;BME280;67029;51.054;13.798;2023-10-09T12:48:22;100419.45;;;18.91;64.76
76519;BME280;67029;51.054;13.798;2023-10-09T12:50:52;100423.69;;;18.87;64.75
76519;BME280;67029;51.054;13.798;2023-10-09T12:53:22;100423.79;;;18.86;64.96
76519;BME280;67029;51.054;13.798;2023-10-09T12:55:52;100421.59;;;18.87;64.96
76519;BME280;67029;51.054;13.798;2023-10-09T12:58:22;100417.84;;;18.92;65.28